SWA382 KMSP-KJFK
Flight info
| Callsign | SWA382 |
|---|---|
| Flight time | 2h 1m |
| Altitude | 37000 |
| Route | COULT7 DLL HASTE DAFLU J70 JHW Q476 WLKES PUCKY1 |
| Aircraft | B738/M-SDE2E3FGHIRWXY/LB1 |
Departure
| Time | 2026-05-06 03:24 |
|---|---|
| Airport | Minneapolis–Saint Paul International Airport / Wold–Chamberlain Field (KMSP) |
Arrival
| Time | 2026-05-06 05:25 |
|---|---|
| Airport | John F. Kennedy International Airport (KJFK) |
| Time | Latitude | Longitude | Altitude | Speed | Heading |
|---|---|---|---|---|---|
| 2026-05-06 02:50 | 44.87497 | -93.22845 | 824 ft | 0 kts | 134° |
| 2026-05-06 03:13 | 44.87520 | -93.22881 | 823 ft | 5 kts | 128° |
| 2026-05-06 03:13 | 44.87538 | -93.22918 | 824 ft | 4 kts | 114° |
| 2026-05-06 03:13 | 44.87543 | -93.22947 | 820 ft | 2 kts | 89° |
| 2026-05-06 03:13 | 44.87540 | -93.22971 | 822 ft | 3 kts | 63° |
| 2026-05-06 03:14 | 44.87531 | -93.22991 | 823 ft | 2 kts | 49° |
| 2026-05-06 03:14 | 44.87523 | -93.23003 | 822 ft | 2 kts | 45° |
| 2026-05-06 03:14 | 44.87515 | -93.23014 | 824 ft | 2 kts | 44° |
| 2026-05-06 03:14 | 44.87515 | -93.23015 | 820 ft | 0 kts | 44° |
| 2026-05-06 03:16 | 44.87523 | -93.23003 | 821 ft | 5 kts | 44° |
| 2026-05-06 03:17 | 44.87563 | -93.22948 | 824 ft | 11 kts | 45° |
| 2026-05-06 03:17 | 44.87627 | -93.22858 | 824 ft | 15 kts | 45° |
| 2026-05-06 03:17 | 44.87701 | -93.22753 | 824 ft | 16 kts | 45° |
| 2026-05-06 03:17 | 44.87781 | -93.22641 | 822 ft | 16 kts | 44° |
| 2026-05-06 03:18 | 44.87856 | -93.22537 | 824 ft | 15 kts | 44° |
| 2026-05-06 03:18 | 44.87931 | -93.22434 | 824 ft | 15 kts | 44° |
| 2026-05-06 03:18 | 44.87996 | -93.22332 | 823 ft | 14 kts | 47° |
| 2026-05-06 03:18 | 44.88061 | -93.22235 | 824 ft | 13 kts | 46° |
| 2026-05-06 03:19 | 44.88090 | -93.22125 | 821 ft | 13 kts | 112° |
| 2026-05-06 03:19 | 44.88041 | -93.22009 | 824 ft | 15 kts | 121° |
| 2026-05-06 03:19 | 44.87985 | -93.21878 | 824 ft | 17 kts | 121° |
| 2026-05-06 03:19 | 44.87920 | -93.21728 | 823 ft | 19 kts | 122° |
| 2026-05-06 03:20 | 44.87770 | -93.21384 | 821 ft | 20 kts | 121° |
| 2026-05-06 03:20 | 44.87699 | -93.21218 | 824 ft | 20 kts | 121° |
| 2026-05-06 03:20 | 44.87629 | -93.21054 | 821 ft | 19 kts | 121° |
| 2026-05-06 03:21 | 44.87560 | -93.20897 | 823 ft | 19 kts | 121° |
| 2026-05-06 03:21 | 44.87492 | -93.20746 | 822 ft | 18 kts | 129° |
| 2026-05-06 03:21 | 44.87397 | -93.20640 | 824 ft | 17 kts | 141° |
| 2026-05-06 03:21 | 44.87327 | -93.20510 | 820 ft | 14 kts | 121° |
| 2026-05-06 03:22 | 44.87289 | -93.20402 | 821 ft | 8 kts | 94° |
| 2026-05-06 03:22 | 44.87320 | -93.20348 | 822 ft | 7 kts | 33° |
| 2026-05-06 03:22 | 44.87373 | -93.20302 | 824 ft | 11 kts | 30° |
| 2026-05-06 03:22 | 44.87442 | -93.20324 | 824 ft | 11 kts | 308° |
| 2026-05-06 03:23 | 44.87479 | -93.20415 | 824 ft | 18 kts | 301° |
| 2026-05-06 03:23 | 44.87699 | -93.20918 | 824 ft | 102 kts | 302° |
| 2026-05-06 03:23 | 44.88205 | -93.22066 | 882 ft | 166 kts | 304° |
| 2026-05-06 03:23 | 44.88884 | -93.23563 | 1368 ft | 197 kts | 305° |
| 2026-05-06 03:24 | 44.89728 | -93.25150 | 2159 ft | 206 kts | 319° |
| 2026-05-06 03:24 | 44.90979 | -93.26155 | 2985 ft | 210 kts | 333° |
| 2026-05-06 03:24 | 44.92292 | -93.27168 | 3577 ft | 218 kts | 330° |
| 2026-05-06 03:24 | 44.93650 | -93.28196 | 4213 ft | 224 kts | 339° |
| 2026-05-06 03:25 | 44.95207 | -93.28448 | 4877 ft | 232 kts | 5° |
| 2026-05-06 03:25 | 44.96649 | -93.27393 | 5531 ft | 244 kts | 44° |
| 2026-05-06 03:25 | 44.97383 | -93.25196 | 6147 ft | 259 kts | 81° |
| 2026-05-06 03:25 | 44.97084 | -93.22640 | 6576 ft | 279 kts | 117° |
| 2026-05-06 03:26 | 44.95747 | -93.20623 | 7150 ft | 288 kts | 151° |
| 2026-05-06 03:26 | 44.94121 | -93.19030 | 7990 ft | 293 kts | 131° |
| 2026-05-06 03:26 | 44.93202 | -93.16485 | 8837 ft | 295 kts | 101° |
| 2026-05-06 03:26 | 44.92859 | -93.13580 | 9721 ft | 298 kts | 98° |
| 2026-05-06 03:27 | 44.92443 | -93.10714 | 10401 ft | 308 kts | 103° |
| 2026-05-06 03:27 | 44.91824 | -93.07680 | 10630 ft | 333 kts | 108° |
| 2026-05-06 03:27 | 44.90999 | -93.04555 | 11157 ft | 345 kts | 112° |
| 2026-05-06 03:27 | 44.90032 | -93.01427 | 11910 ft | 350 kts | 115° |
| 2026-05-06 03:28 | 44.88976 | -92.98321 | 12727 ft | 353 kts | 117° |
| 2026-05-06 03:28 | 44.87858 | -92.95214 | 13515 ft | 357 kts | 118° |
| 2026-05-06 03:28 | 44.86699 | -92.92096 | 14236 ft | 362 kts | 119° |
| 2026-05-06 03:28 | 44.85504 | -92.88933 | 14924 ft | 366 kts | 120° |
| 2026-05-06 03:29 | 44.84293 | -92.85756 | 15598 ft | 370 kts | 120° |
| 2026-05-06 03:29 | 44.83064 | -92.82543 | 16268 ft | 375 kts | 120° |
| 2026-05-06 03:29 | 44.81813 | -92.79281 | 16936 ft | 380 kts | 120° |
| 2026-05-06 03:29 | 44.80550 | -92.75986 | 17604 ft | 384 kts | 121° |
| 2026-05-06 03:30 | 44.79287 | -92.72699 | 18250 ft | 389 kts | 121° |
| 2026-05-06 03:30 | 44.77991 | -92.69326 | 18769 ft | 395 kts | 121° |
| 2026-05-06 03:30 | 44.76672 | -92.65898 | 19250 ft | 402 kts | 122° |
| 2026-05-06 03:30 | 44.75330 | -92.62415 | 19712 ft | 409 kts | 122° |
| 2026-05-06 03:31 | 44.73961 | -92.58861 | 20205 ft | 415 kts | 123° |
| 2026-05-06 03:31 | 44.72572 | -92.55261 | 20690 ft | 421 kts | 123° |
| 2026-05-06 03:31 | 44.71162 | -92.51613 | 21155 ft | 428 kts | 123° |
| 2026-05-06 03:31 | 44.69672 | -92.47957 | 21609 ft | 431 kts | 129° |
| 2026-05-06 03:32 | 44.67963 | -92.44486 | 22077 ft | 434 kts | 133° |
| 2026-05-06 03:32 | 44.66159 | -92.41045 | 22541 ft | 439 kts | 134° |
| 2026-05-06 03:32 | 44.64319 | -92.37579 | 22982 ft | 446 kts | 134° |
| 2026-05-06 03:32 | 44.62467 | -92.34055 | 23421 ft | 452 kts | 134° |
| 2026-05-06 03:33 | 44.60607 | -92.30471 | 23819 ft | 457 kts | 134° |
| 2026-05-06 03:33 | 44.58764 | -92.26885 | 24248 ft | 460 kts | 134° |
| 2026-05-06 03:33 | 44.56884 | -92.23225 | 24676 ft | 463 kts | 135° |
| 2026-05-06 03:33 | 44.54988 | -92.19545 | 25086 ft | 466 kts | 135° |
| 2026-05-06 03:34 | 44.53078 | -92.15852 | 25488 ft | 470 kts | 135° |
| 2026-05-06 03:34 | 44.51152 | -92.12133 | 25894 ft | 472 kts | 135° |
| 2026-05-06 03:34 | 44.49212 | -92.08393 | 26306 ft | 475 kts | 135° |
| 2026-05-06 03:34 | 44.47263 | -92.04634 | 26707 ft | 478 kts | 135° |
| 2026-05-06 03:35 | 44.45302 | -92.00858 | 27092 ft | 481 kts | 135° |
| 2026-05-06 03:35 | 44.43328 | -91.97059 | 27482 ft | 483 kts | 135° |
| 2026-05-06 03:35 | 44.41341 | -91.93239 | 27858 ft | 486 kts | 135° |
| 2026-05-06 03:35 | 44.39348 | -91.89412 | 28239 ft | 488 kts | 135° |
| 2026-05-06 03:36 | 44.37379 | -91.85614 | 28590 ft | 492 kts | 134° |
| 2026-05-06 03:36 | 44.35575 | -91.81461 | 28952 ft | 503 kts | 127° |
| 2026-05-06 03:36 | 44.33918 | -91.77143 | 29307 ft | 507 kts | 126° |
| 2026-05-06 03:36 | 44.32284 | -91.72761 | 29657 ft | 510 kts | 125° |
| 2026-05-06 03:37 | 44.30652 | -91.68355 | 29982 ft | 512 kts | 125° |
| 2026-05-06 03:37 | 44.29003 | -91.63929 | 30276 ft | 514 kts | 126° |
| 2026-05-06 03:37 | 44.27342 | -91.59508 | 30559 ft | 515 kts | 126° |
| 2026-05-06 03:37 | 44.25661 | -91.55077 | 30859 ft | 517 kts | 126° |
| 2026-05-06 03:38 | 44.23973 | -91.50654 | 31142 ft | 518 kts | 126° |
| 2026-05-06 03:38 | 44.22273 | -91.46220 | 31403 ft | 519 kts | 126° |
| 2026-05-06 03:38 | 44.20561 | -91.41770 | 31657 ft | 521 kts | 126° |
| 2026-05-06 03:38 | 44.18848 | -91.37323 | 31966 ft | 521 kts | 126° |
| 2026-05-06 03:39 | 44.17132 | -91.32872 | 32334 ft | 520 kts | 126° |
| 2026-05-06 03:39 | 44.16001 | -91.29937 | 32575 ft | 519 kts | 126° |
| 2026-05-06 03:39 | 44.14287 | -91.25499 | 32900 ft | 519 kts | 126° |
| 2026-05-06 03:39 | 44.12575 | -91.21073 | 33191 ft | 519 kts | 126° |
| 2026-05-06 03:40 | 44.10863 | -91.16656 | 33488 ft | 519 kts | 126° |
| 2026-05-06 03:40 | 44.09147 | -91.12236 | 33807 ft | 519 kts | 126° |
| 2026-05-06 03:40 | 44.07430 | -91.07819 | 34084 ft | 518 kts | 126° |
| 2026-05-06 03:40 | 44.05712 | -91.03408 | 34329 ft | 518 kts | 126° |
| 2026-05-06 03:41 | 44.03999 | -90.99015 | 34583 ft | 517 kts | 126° |
| 2026-05-06 03:41 | 44.02283 | -90.94622 | 34843 ft | 517 kts | 126° |
| 2026-05-06 03:41 | 44.00570 | -90.90241 | 35097 ft | 516 kts | 126° |
| 2026-05-06 03:41 | 43.98853 | -90.85858 | 35341 ft | 516 kts | 126° |
| 2026-05-06 03:42 | 43.97155 | -90.81531 | 35580 ft | 515 kts | 126° |
| 2026-05-06 03:42 | 43.95438 | -90.77161 | 35811 ft | 515 kts | 126° |
| 2026-05-06 03:42 | 43.93721 | -90.72802 | 36033 ft | 514 kts | 126° |
| 2026-05-06 03:42 | 43.92004 | -90.68447 | 36263 ft | 514 kts | 126° |
| 2026-05-06 03:43 | 43.90292 | -90.64109 | 36496 ft | 513 kts | 126° |
| 2026-05-06 03:43 | 43.88573 | -90.59763 | 36696 ft | 514 kts | 126° |
| 2026-05-06 03:43 | 43.86853 | -90.55421 | 36865 ft | 514 kts | 126° |
| 2026-05-06 03:43 | 43.85130 | -90.51080 | 36938 ft | 515 kts | 126° |
| 2026-05-06 03:44 | 43.81665 | -90.42368 | 36914 ft | 515 kts | 127° |
| 2026-05-06 03:44 | 43.78228 | -90.33741 | 36912 ft | 513 kts | 127° |
| 2026-05-06 03:45 | 43.74781 | -90.25119 | 36910 ft | 511 kts | 127° |
| 2026-05-06 03:45 | 43.71330 | -90.16519 | 36910 ft | 509 kts | 127° |
| 2026-05-06 03:46 | 43.67887 | -90.07964 | 36922 ft | 509 kts | 127° |
| 2026-05-06 03:46 | 43.64439 | -89.99423 | 36930 ft | 509 kts | 127° |
| 2026-05-06 03:47 | 43.61003 | -89.90933 | 36937 ft | 510 kts | 127° |
| 2026-05-06 03:47 | 43.57526 | -89.82367 | 36941 ft | 512 kts | 127° |
| 2026-05-06 03:48 | 43.54468 | -89.73394 | 36928 ft | 526 kts | 112° |
| 2026-05-06 03:48 | 43.52736 | -89.63580 | 36938 ft | 532 kts | 108° |
| 2026-05-06 03:49 | 43.51146 | -89.53607 | 36934 ft | 533 kts | 108° |
| 2026-05-06 03:49 | 43.49501 | -89.43643 | 36927 ft | 533 kts | 108° |
| 2026-05-06 03:50 | 43.47799 | -89.33708 | 36930 ft | 533 kts | 109° |
| 2026-05-06 03:50 | 43.46069 | -89.23776 | 36923 ft | 533 kts | 109° |
| 2026-05-06 03:51 | 43.44332 | -89.13849 | 36920 ft | 533 kts | 109° |
| 2026-05-06 03:51 | 43.42605 | -89.04008 | 36926 ft | 532 kts | 109° |
| 2026-05-06 03:52 | 43.40851 | -88.94059 | 36932 ft | 531 kts | 109° |
| 2026-05-06 03:52 | 43.39113 | -88.84251 | 36943 ft | 530 kts | 109° |
| 2026-05-06 03:53 | 43.37358 | -88.74408 | 36946 ft | 530 kts | 109° |
| 2026-05-06 03:53 | 43.35594 | -88.64568 | 36950 ft | 530 kts | 109° |
| 2026-05-06 03:54 | 43.33821 | -88.54732 | 36940 ft | 529 kts | 109° |
| 2026-05-06 03:54 | 43.32041 | -88.44905 | 36940 ft | 530 kts | 109° |
| 2026-05-06 03:55 | 43.30264 | -88.35148 | 36927 ft | 530 kts | 110° |
| 2026-05-06 03:55 | 43.28523 | -88.25640 | 36926 ft | 531 kts | 110° |
| 2026-05-06 03:56 | 43.26711 | -88.15794 | 36924 ft | 532 kts | 110° |
| 2026-05-06 03:56 | 43.24892 | -88.05958 | 36945 ft | 532 kts | 110° |
| 2026-05-06 03:57 | 43.23060 | -87.96106 | 36943 ft | 533 kts | 110° |
| 2026-05-06 03:57 | 43.21216 | -87.86244 | 36938 ft | 534 kts | 110° |
| 2026-05-06 03:58 | 43.19371 | -87.76426 | 36939 ft | 538 kts | 110° |
| 2026-05-06 03:58 | 43.17479 | -87.66427 | 36932 ft | 546 kts | 110° |
| 2026-05-06 03:59 | 43.15555 | -87.56304 | 36920 ft | 553 kts | 110° |
| 2026-05-06 03:59 | 43.13596 | -87.46040 | 36925 ft | 560 kts | 110° |
| 2026-05-06 04:00 | 43.11609 | -87.35678 | 36924 ft | 565 kts | 110° |
| 2026-05-06 04:00 | 43.09598 | -87.25242 | 36922 ft | 568 kts | 110° |
| 2026-05-06 04:01 | 43.07571 | -87.14788 | 36925 ft | 570 kts | 110° |
| 2026-05-06 04:01 | 43.05527 | -87.04298 | 36924 ft | 570 kts | 110° |
| 2026-05-06 04:02 | 43.03474 | -86.93823 | 36922 ft | 570 kts | 110° |
| 2026-05-06 04:02 | 43.01414 | -86.83367 | 36918 ft | 570 kts | 110° |
| 2026-05-06 04:03 | 42.99340 | -86.72899 | 36909 ft | 569 kts | 110° |
| 2026-05-06 04:03 | 42.97263 | -86.62469 | 36915 ft | 568 kts | 110° |
| 2026-05-06 04:04 | 42.95197 | -86.52145 | 36905 ft | 566 kts | 110° |
| 2026-05-06 04:04 | 42.93112 | -86.41786 | 36916 ft | 565 kts | 110° |
| 2026-05-06 04:05 | 42.91022 | -86.31458 | 36910 ft | 564 kts | 110° |
| 2026-05-06 04:05 | 42.88924 | -86.21142 | 36923 ft | 564 kts | 110° |
| 2026-05-06 04:06 | 42.86819 | -86.10841 | 36919 ft | 564 kts | 110° |
| 2026-05-06 04:06 | 42.84702 | -86.00534 | 36922 ft | 564 kts | 110° |
| 2026-05-06 04:07 | 42.82589 | -85.90297 | 36915 ft | 564 kts | 110° |
| 2026-05-06 04:07 | 42.80453 | -85.80003 | 36905 ft | 564 kts | 110° |
| 2026-05-06 04:08 | 42.78311 | -85.69728 | 36900 ft | 564 kts | 110° |
| 2026-05-06 04:08 | 42.76159 | -85.59457 | 36906 ft | 563 kts | 110° |
| 2026-05-06 04:09 | 42.74000 | -85.49203 | 36896 ft | 563 kts | 110° |
| 2026-05-06 04:09 | 42.71835 | -85.38970 | 36905 ft | 563 kts | 110° |
| 2026-05-06 04:10 | 42.69663 | -85.28755 | 36892 ft | 562 kts | 110° |
| 2026-05-06 04:10 | 42.67493 | -85.18582 | 36899 ft | 562 kts | 110° |
| 2026-05-06 04:11 | 42.66002 | -85.08106 | 36899 ft | 566 kts | 101° |
| 2026-05-06 04:11 | 42.64927 | -84.97507 | 36889 ft | 566 kts | 100° |
| 2026-05-06 04:12 | 42.63845 | -84.86928 | 36870 ft | 565 kts | 101° |
| 2026-05-06 04:12 | 42.62708 | -84.76443 | 36883 ft | 564 kts | 101° |
| 2026-05-06 04:13 | 42.61603 | -84.65895 | 36887 ft | 564 kts | 99° |
| 2026-05-06 04:13 | 42.60731 | -84.55303 | 36870 ft | 564 kts | 99° |
| 2026-05-06 04:14 | 42.59427 | -84.44839 | 36884 ft | 562 kts | 103° |
| 2026-05-06 04:14 | 42.57999 | -84.34415 | 36881 ft | 561 kts | 102° |
| 2026-05-06 04:15 | 42.56710 | -84.23964 | 36875 ft | 561 kts | 101° |
| 2026-05-06 04:15 | 42.55504 | -84.13513 | 36880 ft | 560 kts | 101° |
| 2026-05-06 04:16 | 42.54304 | -84.03092 | 36880 ft | 559 kts | 101° |
| 2026-05-06 04:16 | 42.53081 | -83.92683 | 36880 ft | 558 kts | 101° |
| 2026-05-06 04:17 | 42.51841 | -83.82275 | 36876 ft | 558 kts | 101° |
| 2026-05-06 04:17 | 42.50594 | -83.71907 | 36873 ft | 557 kts | 101° |
| 2026-05-06 04:18 | 42.49348 | -83.61607 | 36866 ft | 557 kts | 101° |
| 2026-05-06 04:18 | 42.48086 | -83.51264 | 36871 ft | 556 kts | 101° |
| 2026-05-06 04:19 | 42.46818 | -83.40939 | 36857 ft | 555 kts | 101° |
| 2026-05-06 04:19 | 42.45540 | -83.30617 | 36861 ft | 554 kts | 101° |
| 2026-05-06 04:20 | 42.44256 | -83.20326 | 36861 ft | 554 kts | 101° |
| 2026-05-06 04:20 | 42.42964 | -83.10048 | 36862 ft | 553 kts | 101° |
| 2026-05-06 04:21 | 42.41672 | -82.99851 | 36858 ft | 552 kts | 101° |
| 2026-05-06 04:21 | 42.40364 | -82.89598 | 36866 ft | 551 kts | 101° |
| 2026-05-06 04:22 | 42.39054 | -82.79395 | 36856 ft | 550 kts | 101° |
| 2026-05-06 04:23 | 42.37525 | -82.64025 | 36872 ft | 549 kts | 93° |
| 2026-05-06 04:23 | 42.37183 | -82.53766 | 36856 ft | 549 kts | 92° |
| 2026-05-06 04:24 | 42.36850 | -82.43465 | 36857 ft | 548 kts | 93° |
| 2026-05-06 04:24 | 42.36455 | -82.33194 | 36861 ft | 547 kts | 94° |
| 2026-05-06 04:25 | 42.36026 | -82.22925 | 36860 ft | 546 kts | 94° |
| 2026-05-06 04:25 | 42.35663 | -82.14412 | 36865 ft | 545 kts | 94° |
| 2026-05-06 04:26 | 42.35223 | -82.04177 | 36864 ft | 545 kts | 94° |
| 2026-05-06 04:26 | 42.34776 | -81.93958 | 36865 ft | 544 kts | 94° |
| 2026-05-06 04:27 | 42.34320 | -81.83752 | 36864 ft | 544 kts | 94° |
| 2026-05-06 04:27 | 42.33855 | -81.73537 | 36876 ft | 543 kts | 94° |
| 2026-05-06 04:28 | 42.33382 | -81.63351 | 36874 ft | 542 kts | 94° |
| 2026-05-06 04:28 | 42.32905 | -81.53245 | 36883 ft | 542 kts | 94° |
| 2026-05-06 04:29 | 42.32417 | -81.43082 | 36882 ft | 541 kts | 94° |
| 2026-05-06 04:29 | 42.31922 | -81.32939 | 36885 ft | 541 kts | 94° |
| 2026-05-06 04:30 | 42.31418 | -81.22797 | 36884 ft | 540 kts | 94° |
| 2026-05-06 04:30 | 42.30909 | -81.12736 | 36891 ft | 539 kts | 94° |
| 2026-05-06 04:31 | 42.30390 | -81.02632 | 36886 ft | 538 kts | 94° |
| 2026-05-06 04:31 | 42.29861 | -80.92522 | 36890 ft | 538 kts | 94° |
| 2026-05-06 04:32 | 42.29325 | -80.82450 | 36884 ft | 537 kts | 94° |
| 2026-05-06 04:32 | 42.28782 | -80.72398 | 36888 ft | 536 kts | 95° |
| 2026-05-06 04:33 | 42.28227 | -80.62370 | 36882 ft | 535 kts | 95° |
| 2026-05-06 04:33 | 42.27667 | -80.52425 | 36883 ft | 534 kts | 95° |
| 2026-05-06 04:34 | 42.27095 | -80.42418 | 36880 ft | 533 kts | 95° |
| 2026-05-06 04:34 | 42.26517 | -80.32438 | 36877 ft | 533 kts | 95° |
| 2026-05-06 04:35 | 42.25932 | -80.22474 | 36871 ft | 532 kts | 95° |
| 2026-05-06 04:35 | 42.25338 | -80.12529 | 36875 ft | 531 kts | 95° |
| 2026-05-06 04:36 | 42.24738 | -80.02606 | 36813 ft | 531 kts | 95° |
| 2026-05-06 04:36 | 42.24433 | -79.97624 | 36588 ft | 532 kts | 95° |
| 2026-05-06 04:36 | 42.24130 | -79.92714 | 36388 ft | 529 kts | 95° |
| 2026-05-06 04:36 | 42.23823 | -79.87761 | 36173 ft | 527 kts | 95° |
| 2026-05-06 04:37 | 42.23514 | -79.82829 | 35915 ft | 526 kts | 95° |
| 2026-05-06 04:37 | 42.23205 | -79.77913 | 35669 ft | 526 kts | 95° |
| 2026-05-06 04:37 | 42.22893 | -79.72989 | 35419 ft | 526 kts | 95° |
| 2026-05-06 04:37 | 42.22579 | -79.68078 | 35176 ft | 525 kts | 96° |
| 2026-05-06 04:38 | 42.22264 | -79.63168 | 34943 ft | 525 kts | 96° |
| 2026-05-06 04:38 | 42.21629 | -79.53380 | 34864 ft | 528 kts | 96° |
| 2026-05-06 04:39 | 42.20982 | -79.43538 | 34850 ft | 525 kts | 96° |
| 2026-05-06 04:39 | 42.20329 | -79.33735 | 34862 ft | 524 kts | 96° |
| 2026-05-06 04:40 | 42.19669 | -79.23948 | 34858 ft | 523 kts | 96° |
| 2026-05-06 04:40 | 42.18982 | -79.14178 | 34858 ft | 522 kts | 98° |
| 2026-05-06 04:41 | 42.17213 | -79.04795 | 34870 ft | 518 kts | 111° |
| 2026-05-06 04:41 | 42.14826 | -78.95609 | 34854 ft | 518 kts | 111° |
| 2026-05-06 04:42 | 42.12449 | -78.86443 | 34858 ft | 517 kts | 111° |
| 2026-05-06 04:42 | 42.10125 | -78.77276 | 34851 ft | 517 kts | 111° |
| 2026-05-06 04:43 | 42.07833 | -78.68179 | 34860 ft | 516 kts | 111° |
| 2026-05-06 04:43 | 42.05523 | -78.59040 | 34862 ft | 516 kts | 111° |
| 2026-05-06 04:44 | 42.03205 | -78.49924 | 34857 ft | 515 kts | 111° |
| 2026-05-06 04:44 | 42.00875 | -78.40801 | 34860 ft | 514 kts | 111° |
| 2026-05-06 04:45 | 41.98543 | -78.31704 | 34861 ft | 513 kts | 111° |
| 2026-05-06 04:45 | 41.96216 | -78.22661 | 34870 ft | 513 kts | 111° |
| 2026-05-06 04:46 | 41.93889 | -78.13654 | 34875 ft | 512 kts | 111° |
| 2026-05-06 04:46 | 41.91546 | -78.04617 | 34878 ft | 512 kts | 111° |
| 2026-05-06 04:47 | 41.89200 | -77.95599 | 34864 ft | 511 kts | 111° |
| 2026-05-06 04:47 | 41.86851 | -77.86600 | 34864 ft | 510 kts | 111° |
| 2026-05-06 04:48 | 41.84496 | -77.77622 | 34844 ft | 510 kts | 111° |
| 2026-05-06 04:48 | 41.82151 | -77.68722 | 34847 ft | 509 kts | 111° |
| 2026-05-06 04:49 | 41.79788 | -77.59772 | 34838 ft | 509 kts | 111° |
| 2026-05-06 04:49 | 41.77419 | -77.50838 | 34847 ft | 508 kts | 111° |
| 2026-05-06 04:50 | 41.75041 | -77.41909 | 34835 ft | 508 kts | 111° |
| 2026-05-06 04:50 | 41.72666 | -77.33018 | 34842 ft | 507 kts | 111° |
| 2026-05-06 04:51 | 41.70291 | -77.24152 | 34836 ft | 505 kts | 111° |
| 2026-05-06 04:51 | 41.67914 | -77.15312 | 34837 ft | 504 kts | 111° |
| 2026-05-06 04:52 | 41.65549 | -77.06562 | 34835 ft | 503 kts | 111° |
| 2026-05-06 04:52 | 41.63154 | -76.97731 | 34837 ft | 502 kts | 111° |
| 2026-05-06 04:53 | 41.60782 | -76.89012 | 34833 ft | 501 kts | 111° |
| 2026-05-06 04:53 | 41.58398 | -76.80273 | 34840 ft | 500 kts | 111° |
| 2026-05-06 04:54 | 41.56023 | -76.71599 | 34816 ft | 487 kts | 111° |
| 2026-05-06 04:54 | 41.54875 | -76.67413 | 34820 ft | 474 kts | 111° |
| 2026-05-06 04:54 | 41.53742 | -76.63293 | 34841 ft | 471 kts | 111° |
| 2026-05-06 04:55 | 41.51480 | -76.55092 | 34503 ft | 470 kts | 111° |
| 2026-05-06 04:55 | 41.50372 | -76.51086 | 34156 ft | 464 kts | 111° |
| 2026-05-06 04:55 | 41.49254 | -76.47048 | 33737 ft | 461 kts | 111° |
| 2026-05-06 04:55 | 41.48149 | -76.43061 | 33288 ft | 457 kts | 111° |
| 2026-05-06 04:56 | 41.47050 | -76.39101 | 32885 ft | 452 kts | 111° |
| 2026-05-06 04:56 | 41.45960 | -76.35180 | 32462 ft | 449 kts | 111° |
| 2026-05-06 04:56 | 41.44882 | -76.31303 | 32070 ft | 444 kts | 111° |
| 2026-05-06 04:56 | 41.43807 | -76.27448 | 31657 ft | 441 kts | 111° |
| 2026-05-06 04:57 | 41.42742 | -76.23634 | 31252 ft | 438 kts | 111° |
| 2026-05-06 04:57 | 41.41684 | -76.19852 | 30862 ft | 434 kts | 111° |
| 2026-05-06 04:57 | 41.40631 | -76.16089 | 30468 ft | 431 kts | 111° |
| 2026-05-06 04:57 | 41.39586 | -76.12363 | 30086 ft | 428 kts | 112° |
| 2026-05-06 04:58 | 41.38544 | -76.08654 | 29669 ft | 425 kts | 112° |
| 2026-05-06 04:58 | 41.37523 | -76.05025 | 29254 ft | 421 kts | 112° |
| 2026-05-06 04:58 | 41.36501 | -76.01396 | 28869 ft | 417 kts | 112° |
| 2026-05-06 04:58 | 41.35487 | -75.97800 | 28466 ft | 413 kts | 112° |
| 2026-05-06 04:59 | 41.34479 | -75.94231 | 28060 ft | 409 kts | 112° |
| 2026-05-06 04:59 | 41.33478 | -75.90694 | 27671 ft | 406 kts | 112° |
| 2026-05-06 04:59 | 41.32487 | -75.87195 | 27289 ft | 402 kts | 112° |
| 2026-05-06 04:59 | 41.31500 | -75.83716 | 26893 ft | 399 kts | 112° |
| 2026-05-06 05:00 | 41.30523 | -75.80276 | 26510 ft | 396 kts | 112° |
| 2026-05-06 05:00 | 41.29552 | -75.76858 | 26128 ft | 394 kts | 112° |
| 2026-05-06 05:00 | 41.28585 | -75.73462 | 25752 ft | 391 kts | 112° |
| 2026-05-06 05:00 | 41.27622 | -75.70085 | 25369 ft | 389 kts | 112° |
| 2026-05-06 05:01 | 41.26684 | -75.66721 | 25065 ft | 386 kts | 111° |
| 2026-05-06 05:01 | 41.25799 | -75.63365 | 24822 ft | 382 kts | 111° |
| 2026-05-06 05:01 | 41.24947 | -75.60061 | 24595 ft | 385 kts | 110° |
| 2026-05-06 05:01 | 41.24083 | -75.56695 | 24323 ft | 384 kts | 110° |
| 2026-05-06 05:02 | 41.23220 | -75.53344 | 24017 ft | 382 kts | 110° |
| 2026-05-06 05:02 | 41.22360 | -75.50018 | 23653 ft | 380 kts | 111° |
| 2026-05-06 05:02 | 41.21498 | -75.46699 | 23259 ft | 379 kts | 111° |
| 2026-05-06 05:02 | 41.20636 | -75.43394 | 22833 ft | 377 kts | 111° |
| 2026-05-06 05:03 | 41.19777 | -75.40108 | 22427 ft | 375 kts | 111° |
| 2026-05-06 05:03 | 41.18922 | -75.36845 | 22051 ft | 373 kts | 111° |
| 2026-05-06 05:03 | 41.18071 | -75.33604 | 21660 ft | 371 kts | 111° |
| 2026-05-06 05:03 | 41.17223 | -75.30374 | 21278 ft | 369 kts | 112° |
| 2026-05-06 05:04 | 41.16379 | -75.27170 | 20906 ft | 367 kts | 112° |
| 2026-05-06 05:04 | 41.15539 | -75.23985 | 20530 ft | 365 kts | 112° |
| 2026-05-06 05:04 | 41.14703 | -75.20819 | 20167 ft | 363 kts | 112° |
| 2026-05-06 05:04 | 41.13870 | -75.17670 | 19797 ft | 362 kts | 112° |
| 2026-05-06 05:05 | 41.13037 | -75.14525 | 19422 ft | 360 kts | 112° |
| 2026-05-06 05:05 | 41.12209 | -75.11400 | 19051 ft | 359 kts | 112° |
| 2026-05-06 05:05 | 41.11382 | -75.08286 | 18690 ft | 358 kts | 113° |
| 2026-05-06 05:05 | 41.10566 | -75.05214 | 18310 ft | 357 kts | 113° |
| 2026-05-06 05:06 | 41.09728 | -75.02069 | 17906 ft | 357 kts | 113° |
| 2026-05-06 05:06 | 41.08915 | -74.99018 | 17511 ft | 355 kts | 113° |
| 2026-05-06 05:06 | 41.08094 | -74.95937 | 17165 ft | 352 kts | 112° |
| 2026-05-06 05:06 | 41.07280 | -74.92889 | 16799 ft | 350 kts | 112° |
| 2026-05-06 05:07 | 41.06468 | -74.89853 | 16442 ft | 348 kts | 112° |
| 2026-05-06 05:07 | 41.05660 | -74.86836 | 16087 ft | 347 kts | 112° |
| 2026-05-06 05:07 | 41.04855 | -74.83833 | 15725 ft | 345 kts | 112° |
| 2026-05-06 05:07 | 41.04051 | -74.80840 | 15363 ft | 344 kts | 112° |
| 2026-05-06 05:08 | 41.03251 | -74.77862 | 15014 ft | 343 kts | 112° |
| 2026-05-06 05:08 | 41.02453 | -74.74894 | 14664 ft | 341 kts | 111° |
| 2026-05-06 05:08 | 41.01656 | -74.71938 | 14312 ft | 340 kts | 111° |
| 2026-05-06 05:08 | 41.00862 | -74.68993 | 13965 ft | 339 kts | 111° |
| 2026-05-06 05:09 | 41.00069 | -74.66056 | 13593 ft | 338 kts | 111° |
| 2026-05-06 05:09 | 40.99278 | -74.63130 | 13203 ft | 337 kts | 111° |
| 2026-05-06 05:09 | 40.98490 | -74.60214 | 12829 ft | 336 kts | 111° |
| 2026-05-06 05:09 | 40.97703 | -74.57309 | 12470 ft | 334 kts | 111° |
| 2026-05-06 05:10 | 40.96928 | -74.54452 | 12117 ft | 333 kts | 111° |
| 2026-05-06 05:10 | 40.96139 | -74.51546 | 11767 ft | 330 kts | 111° |
| 2026-05-06 05:10 | 40.95373 | -74.48728 | 11420 ft | 329 kts | 111° |
| 2026-05-06 05:10 | 40.94602 | -74.45894 | 11075 ft | 327 kts | 112° |
| 2026-05-06 05:11 | 40.93831 | -74.43065 | 10733 ft | 326 kts | 112° |
| 2026-05-06 05:11 | 40.93061 | -74.40244 | 10391 ft | 325 kts | 112° |
| 2026-05-06 05:11 | 40.92300 | -74.37453 | 10209 ft | 318 kts | 112° |
| 2026-05-06 05:11 | 40.91557 | -74.34733 | 10055 ft | 311 kts | 112° |
| 2026-05-06 05:12 | 40.90828 | -74.32068 | 9836 ft | 306 kts | 112° |
| 2026-05-06 05:12 | 40.90105 | -74.29429 | 9514 ft | 305 kts | 112° |
| 2026-05-06 05:12 | 40.89385 | -74.26803 | 9204 ft | 303 kts | 112° |
| 2026-05-06 05:12 | 40.88667 | -74.24190 | 8895 ft | 301 kts | 112° |
| 2026-05-06 05:13 | 40.88193 | -74.22467 | 8692 ft | 300 kts | 112° |
| 2026-05-06 05:13 | 40.87484 | -74.19889 | 8397 ft | 298 kts | 113° |
| 2026-05-06 05:13 | 40.86774 | -74.17310 | 8093 ft | 297 kts | 113° |
| 2026-05-06 05:13 | 40.86091 | -74.14829 | 7789 ft | 296 kts | 113° |
| 2026-05-06 05:14 | 40.85388 | -74.12283 | 7505 ft | 294 kts | 113° |
| 2026-05-06 05:14 | 40.84694 | -74.09769 | 7218 ft | 293 kts | 114° |
| 2026-05-06 05:14 | 40.83996 | -74.07243 | 6921 ft | 293 kts | 114° |
| 2026-05-06 05:14 | 40.83299 | -74.04723 | 6698 ft | 286 kts | 114° |
| 2026-05-06 05:15 | 40.82642 | -74.02339 | 6625 ft | 266 kts | 114° |
| 2026-05-06 05:15 | 40.82031 | -74.00125 | 6483 ft | 249 kts | 114° |
| 2026-05-06 05:15 | 40.81456 | -73.98047 | 6362 ft | 232 kts | 115° |
| 2026-05-06 05:15 | 40.80923 | -73.96123 | 6186 ft | 220 kts | 115° |
| 2026-05-06 05:16 | 40.80390 | -73.94215 | 5784 ft | 220 kts | 116° |
| 2026-05-06 05:16 | 40.79867 | -73.92337 | 5517 ft | 212 kts | 116° |
| 2026-05-06 05:16 | 40.79373 | -73.90557 | 5253 ft | 205 kts | 117° |
| 2026-05-06 05:16 | 40.78879 | -73.88788 | 4878 ft | 205 kts | 117° |
| 2026-05-06 05:17 | 40.78406 | -73.87017 | 4543 ft | 205 kts | 110° |
| 2026-05-06 05:17 | 40.78394 | -73.85129 | 4306 ft | 206 kts | 88° |
| 2026-05-06 05:17 | 40.78533 | -73.83270 | 4097 ft | 208 kts | 90° |
| 2026-05-06 05:17 | 40.78657 | -73.81333 | 3917 ft | 211 kts | 90° |
| 2026-05-06 05:18 | 40.78780 | -73.79403 | 3752 ft | 209 kts | 91° |
| 2026-05-06 05:18 | 40.78898 | -73.77516 | 3638 ft | 202 kts | 91° |
| 2026-05-06 05:18 | 40.79007 | -73.75711 | 3575 ft | 200 kts | 91° |
| 2026-05-06 05:18 | 40.79116 | -73.73877 | 3476 ft | 201 kts | 91° |
| 2026-05-06 05:19 | 40.79225 | -73.72036 | 3384 ft | 200 kts | 91° |
| 2026-05-06 05:19 | 40.79334 | -73.70202 | 3298 ft | 200 kts | 91° |
| 2026-05-06 05:19 | 40.79265 | -73.68408 | 3132 ft | 190 kts | 121° |
| 2026-05-06 05:19 | 40.78546 | -73.67098 | 3033 ft | 170 kts | 154° |
| 2026-05-06 05:20 | 40.77538 | -73.66470 | 2848 ft | 151 kts | 180° |
| 2026-05-06 05:20 | 40.76553 | -73.66448 | 2675 ft | 135 kts | 198° |
| 2026-05-06 05:20 | 40.75717 | -73.66870 | 2498 ft | 125 kts | 215° |
| 2026-05-06 05:20 | 40.74972 | -73.67434 | 2346 ft | 123 kts | 213° |
| 2026-05-06 05:21 | 40.74222 | -73.67991 | 2181 ft | 124 kts | 213° |
| 2026-05-06 05:21 | 40.73472 | -73.68556 | 2031 ft | 124 kts | 213° |
| 2026-05-06 05:21 | 40.72732 | -73.69115 | 1902 ft | 125 kts | 213° |
| 2026-05-06 05:21 | 40.71993 | -73.69672 | 1834 ft | 119 kts | 214° |
| 2026-05-06 05:22 | 40.71297 | -73.70207 | 1820 ft | 113 kts | 214° |
| 2026-05-06 05:22 | 40.70624 | -73.70728 | 1811 ft | 112 kts | 214° |
| 2026-05-06 05:22 | 40.69949 | -73.71253 | 1812 ft | 113 kts | 214° |
| 2026-05-06 05:22 | 40.69263 | -73.71794 | 1659 ft | 117 kts | 214° |
| 2026-05-06 05:23 | 40.68794 | -73.72169 | 1500 ft | 118 kts | 213° |
| 2026-05-06 05:23 | 40.68251 | -73.72586 | 1246 ft | 122 kts | 212° |
| 2026-05-06 05:23 | 40.66718 | -73.73776 | 484 ft | 131 kts | 208° |
| 2026-05-06 05:24 | 40.65944 | -73.74381 | 289 ft | 127 kts | 208° |
| 2026-05-06 05:24 | 40.65199 | -73.74970 | 142 ft | 124 kts | 208° |
| 2026-05-06 05:24 | 40.64462 | -73.75534 | 36 ft | 126 kts | 208° |
| 2026-05-06 05:24 | 40.63777 | -73.76066 | 17 ft | 99 kts | 211° |
| 2026-05-06 05:25 | 40.63285 | -73.76454 | 18 ft | 65 kts | 210° |
| 2026-05-06 05:25 | 40.62988 | -73.76687 | 17 ft | 40 kts | 211° |
| 2026-05-06 05:25 | 40.62759 | -73.76863 | 19 ft | 35 kts | 210° |
| 2026-05-06 05:25 | 40.62591 | -73.77006 | 19 ft | 22 kts | 234° |
| 2026-05-06 05:26 | 40.62577 | -73.77154 | 16 ft | 8 kts | 276° |
| 2026-05-06 05:26 | 40.62578 | -73.77159 | 16 ft | 0 kts | 276° |
| 2026-05-06 05:30 | 40.62578 | -73.77163 | 16 ft | 2 kts | 276° |
| 2026-05-06 05:30 | 40.62597 | -73.77212 | 16 ft | 10 kts | 314° |
| 2026-05-06 05:30 | 40.62664 | -73.77247 | 15 ft | 11 kts | 345° |
| 2026-05-06 05:31 | 40.62735 | -73.77251 | 15 ft | 11 kts | 25° |
| 2026-05-06 05:31 | 40.62805 | -73.77197 | 15 ft | 13 kts | 31° |
| 2026-05-06 05:31 | 40.62891 | -73.77130 | 15 ft | 15 kts | 31° |
| 2026-05-06 05:31 | 40.62960 | -73.77076 | 16 ft | 0 kts | 30° |
| 2026-05-06 05:32 | 40.62987 | -73.77101 | 15 ft | 11 kts | 308° |
| 2026-05-06 05:32 | 40.63037 | -73.77213 | 15 ft | 17 kts | 300° |
| 2026-05-06 05:32 | 40.63098 | -73.77351 | 15 ft | 18 kts | 300° |
| 2026-05-06 05:32 | 40.63163 | -73.77489 | 15 ft | 17 kts | 302° |
| 2026-05-06 05:33 | 40.63223 | -73.77622 | 17 ft | 17 kts | 301° |
| 2026-05-06 05:33 | 40.63281 | -73.77749 | 20 ft | 16 kts | 301° |
| 2026-05-06 05:33 | 40.63357 | -73.77846 | 16 ft | 14 kts | 7° |
| 2026-05-06 05:33 | 40.63437 | -73.77767 | 16 ft | 15 kts | 34° |
| 2026-05-06 05:34 | 40.63528 | -73.77691 | 16 ft | 14 kts | 32° |
| 2026-05-06 05:34 | 40.63550 | -73.77691 | 15 ft | 0 kts | 334° |
| 2026-05-06 05:34 | 40.63560 | -73.77712 | 15 ft | 7 kts | 287° |
| 2026-05-06 05:34 | 40.63556 | -73.77792 | 15 ft | 11 kts | 270° |
| 2026-05-06 05:35 | 40.63596 | -73.77880 | 15 ft | 13 kts | 328° |
| 2026-05-06 05:35 | 40.63687 | -73.77902 | 15 ft | 14 kts | 353° |
| 2026-05-06 05:35 | 40.63792 | -73.77918 | 15 ft | 16 kts | 353° |
| 2026-05-06 05:35 | 40.63899 | -73.77936 | 15 ft | 15 kts | 353° |
| 2026-05-06 05:36 | 40.63998 | -73.77952 | 15 ft | 14 kts | 353° |
| 2026-05-06 05:36 | 40.64079 | -73.78004 | 15 ft | 7 kts | 313° |
| 2026-05-06 05:36 | 40.64089 | -73.78064 | 15 ft | 7 kts | 246° |
| 2026-05-06 05:36 | 40.64070 | -73.78111 | 17 ft | 4 kts | 240° |
| 2026-05-06 05:37 | 40.64069 | -73.78113 | 16 ft | 0 kts | 240° |